sensor_id;sensor_type;location;lat;lon;timestamp;temperature;humidity
59961;DHT22;55902;-37.980;-63.602;2023-01-04T00:01:20;28.00;27.40
59961;DHT22;55902;-37.980;-63.602;2023-01-04T00:03:47;27.90;27.50
59961;DHT22;55902;-37.980;-63.602;2023-01-04T00:06:15;27.80;27.80
59961;DHT22;55902;-37.980;-63.602;2023-01-04T00:08:43;27.70;28.30
59961;DHT22;55902;-37.980;-63.602;2023-01-04T00:11:15;27.60;28.00
59961;DHT22;55902;-37.980;-63.602;2023-01-04T00:13:47;27.50;27.60
59961;DHT22;55902;-37.980;-63.602;2023-01-04T00:16:19;27.40;27.50
59961;DHT22;55902;-37.980;-63.602;2023-01-04T00:18:47;27.40;28.00
59961;DHT22;55902;-37.980;-63.602;2023-01-04T00:21:16;27.30;27.80
59961;DHT22;55902;-37.980;-63.602;2023-01-04T00:27:04;27.10;28.50
59961;DHT22;55902;-37.980;-63.602;2023-01-04T00:29:31;27.00;29.10
59961;DHT22;55902;-37.980;-63.602;2023-01-04T00:31:58;27.00;28.70
59961;DHT22;55902;-37.980;-63.602;2023-01-04T00:34:26;26.90;28.10
59961;DHT22;55902;-37.980;-63.602;2023-01-04T00:36:53;26.80;28.80
59961;DHT22;55902;-37.980;-63.602;2023-01-04T00:39:21;26.80;28.70
59961;DHT22;55902;-37.980;-63.602;2023-01-04T00:41:50;26.70;29.00
59961;DHT22;55902;-37.980;-63.602;2023-01-04T00:44:17;26.60;28.50
59961;DHT22;55902;-37.980;-63.602;2023-01-04T00:46:47;26.50;29.30
59961;DHT22;55902;-37.980;-63.602;2023-01-04T00:49:14;26.40;28.40
59961;DHT22;55902;-37.980;-63.602;2023-01-04T00:51:41;26.40;29.00
59961;DHT22;55902;-37.980;-63.602;2023-01-04T00:54:14;26.20;28.60
59961;DHT22;55902;-37.980;-63.602;2023-01-04T00:56:42;26.10;29.30
59961;DHT22;55902;-37.980;-63.602;2023-01-04T00:59:11;26.10;29.40
59961;DHT22;55902;-37.980;-63.602;2023-01-04T01:01:39;25.90;28.80
59961;DHT22;55902;-37.980;-63.602;2023-01-04T01:04:12;25.80;28.60
59961;DHT22;55902;-37.980;-63.602;2023-01-04T01:06:39;25.70;28.40
59961;DHT22;55902;-37.980;-63.602;2023-01-04T01:09:06;25.60;28.20
59961;DHT22;55902;-37.980;-63.602;2023-01-04T01:11:33;25.50;28.00
59961;DHT22;55902;-37.980;-63.602;2023-01-04T01:14:02;25.40;27.90
59961;DHT22;55902;-37.980;-63.602;2023-01-04T01:16:29;25.30;27.80
59961;DHT22;55902;-37.980;-63.602;2023-01-04T01:18:56;25.20;27.70
59961;DHT22;55902;-37.980;-63.602;2023-01-04T01:21:26;25.10;27.90
59961;DHT22;55902;-37.980;-63.602;2023-01-04T01:23:55;25.00;28.10
59961;DHT22;55902;-37.980;-63.602;2023-01-04T01:33:07;24.80;28.20
59961;DHT22;55902;-37.980;-63.602;2023-01-04T01:35:36;24.70;28.00
59961;DHT22;55902;-37.980;-63.602;2023-01-04T01:38:04;24.60;28.20
59961;DHT22;55902;-37.980;-63.602;2023-01-04T01:40:31;24.60;28.60
59961;DHT22;55902;-37.980;-63.602;2023-01-04T01:42:59;24.50;28.50
59961;DHT22;55902;-37.980;-63.602;2023-01-04T01:48:00;24.40;28.90
59961;DHT22;55902;-37.980;-63.602;2023-01-04T01:50:42;24.30;29.10
59961;DHT22;55902;-37.980;-63.602;2023-01-04T01:53:11;24.20;29.10
59961;DHT22;55902;-37.980;-63.602;2023-01-04T01:55:39;24.10;29.20
59961;DHT22;55902;-37.980;-63.602;2023-01-04T01:58:08;24.10;29.50
59961;DHT22;55902;-37.980;-63.602;2023-01-04T02:00:38;24.00;29.70
59961;DHT22;55902;-37.980;-63.602;2023-01-04T02:05:42;23.90;30.30
59961;DHT22;55902;-37.980;-63.602;2023-01-04T02:08:10;23.90;30.60
59961;DHT22;55902;-37.980;-63.602;2023-01-04T02:10:37;23.80;30.50
59961;DHT22;55902;-37.980;-63.602;2023-01-04T02:13:08;23.80;30.20
59961;DHT22;55902;-37.980;-63.602;2023-01-04T02:15:59;23.80;30.00
59961;DHT22;55902;-37.980;-63.602;2023-01-04T02:18:49;23.70;30.00
59961;DHT22;55902;-37.980;-63.602;2023-01-04T02:30:04;23.60;30.50
59961;DHT22;55902;-37.980;-63.602;2023-01-04T02:38:21;23.40;30.30
59961;DHT22;55902;-37.980;-63.602;2023-01-04T02:44:13;23.30;31.00
59961;DHT22;55902;-37.980;-63.602;2023-01-04T02:47:11;23.30;33.30
59961;DHT22;55902;-37.980;-63.602;2023-01-04T02:49:39;23.20;32.40
59961;DHT22;55902;-37.980;-63.602;2023-01-04T02:52:24;23.10;34.60
59961;DHT22;55902;-37.980;-63.602;2023-01-04T02:54:54;23.00;35.60
59961;DHT22;55902;-37.980;-63.602;2023-01-04T03:03:35;22.90;36.90
59961;DHT22;55902;-37.980;-63.602;2023-01-04T03:06:34;22.80;37.00
59961;DHT22;55902;-37.980;-63.602;2023-01-04T03:09:34;22.70;38.60
59961;DHT22;55902;-37.980;-63.602;2023-01-04T03:12:06;22.50;36.70
59961;DHT22;55902;-37.980;-63.602;2023-01-04T03:15:00;22.40;35.40
59961;DHT22;55902;-37.980;-63.602;2023-01-04T03:17:34;22.30;37.50
59961;DHT22;55902;-37.980;-63.602;2023-01-04T03:20:04;22.20;42.40
59961;DHT22;55902;-37.980;-63.602;2023-01-04T03:22:37;22.10;41.10
59961;DHT22;55902;-37.980;-63.602;2023-01-04T03:25:29;22.00;39.10
59961;DHT22;55902;-37.980;-63.602;2023-01-04T03:28:16;21.90;43.90
59961;DHT22;55902;-37.980;-63.602;2023-01-04T03:34:38;21.60;44.20
59961;DHT22;55902;-37.980;-63.602;2023-01-04T03:37:37;21.50;47.30
59961;DHT22;55902;-37.980;-63.602;2023-01-04T03:43:21;21.30;50.50
59961;DHT22;55902;-37.980;-63.602;2023-01-04T03:46:46;21.10;52.50
59961;DHT22;55902;-37.980;-63.602;2023-01-04T03:52:07;20.80;54.60
59961;DHT22;55902;-37.980;-63.602;2023-01-04T03:54:39;20.70;55.60
59961;DHT22;55902;-37.980;-63.602;2023-01-04T03:57:09;20.60;57.00
59961;DHT22;55902;-37.980;-63.602;2023-01-04T03:59:40;20.60;58.80
59961;DHT22;55902;-37.980;-63.602;2023-01-04T04:02:11;20.50;59.10
59961;DHT22;55902;-37.980;-63.602;2023-01-04T04:04:42;20.40;62.40
59961;DHT22;55902;-37.980;-63.602;2023-01-04T04:07:27;20.30;60.20
59961;DHT22;55902;-37.980;-63.602;2023-01-04T04:10:12;20.20;59.50
59961;DHT22;55902;-37.980;-63.602;2023-01-04T04:12:39;20.10;61.10
59961;DHT22;55902;-37.980;-63.602;2023-01-04T04:15:06;20.10;62.40
59961;DHT22;55902;-37.980;-63.602;2023-01-04T04:17:33;20.00;64.00
59961;DHT22;55902;-37.980;-63.602;2023-01-04T04:20:00;19.90;62.10
59961;DHT22;55902;-37.980;-63.602;2023-01-04T04:22:27;19.80;64.00
59961;DHT22;55902;-37.980;-63.602;2023-01-04T04:24:54;19.80;66.70
59961;DHT22;55902;-37.980;-63.602;2023-01-04T04:27:21;19.70;65.90
59961;DHT22;55902;-37.980;-63.602;2023-01-04T04:29:48;19.60;68.30
59961;DHT22;55902;-37.980;-63.602;2023-01-04T04:32:15;19.60;68.30
59961;DHT22;55902;-37.980;-63.602;2023-01-04T04:34:41;19.50;65.90
59961;DHT22;55902;-37.980;-63.602;2023-01-04T04:37:08;19.50;66.30
59961;DHT22;55902;-37.980;-63.602;2023-01-04T04:39:35;19.40;70.40
59961;DHT22;55902;-37.980;-63.602;2023-01-04T04:42:02;19.40;70.70
59961;DHT22;55902;-37.980;-63.602;2023-01-04T04:44:29;19.30;67.00
59961;DHT22;55902;-37.980;-63.602;2023-01-04T04:46:56;19.30;69.40
59961;DHT22;55902;-37.980;-63.602;2023-01-04T04:49:23;19.20;65.60
59961;DHT22;55902;-37.980;-63.602;2023-01-04T04:51:50;19.20;70.60
59961;DHT22;55902;-37.980;-63.602;2023-01-04T04:54:18;19.20;73.70
59961;DHT22;55902;-37.980;-63.602;2023-01-04T04:56:47;19.10;75.40
59961;DHT22;55902;-37.980;-63.602;2023-01-04T04:59:41;19.00;72.70
59961;DHT22;55902;-37.980;-63.602;2023-01-04T05:02:07;19.00;72.90
59961;DHT22;55902;-37.980;-63.602;2023-01-04T05:04:34;19.00;74.60
59961;DHT22;55902;-37.980;-63.602;2023-01-04T05:10:28;18.90;77.20
59961;DHT22;55902;-37.980;-63.602;2023-01-04T05:12:55;18.80;79.90
59961;DHT22;55902;-37.980;-63.602;2023-01-04T05:15:39;18.70;83.70
59961;DHT22;55902;-37.980;-63.602;2023-01-04T05:18:07;18.70;81.80
59961;DHT22;55902;-37.980;-63.602;2023-01-04T05:20:35;18.70;77.40
59961;DHT22;55902;-37.980;-63.602;2023-01-04T05:23:02;18.70;82.60
59961;DHT22;55902;-37.980;-63.602;2023-01-04T05:25:29;18.70;81.70
59961;DHT22;55902;-37.980;-63.602;2023-01-04T05:31:17;18.60;79.00
59961;DHT22;55902;-37.980;-63.602;2023-01-04T05:33:44;18.60;84.20
59961;DHT22;55902;-37.980;-63.602;2023-01-04T05:36:11;18.60;79.90
59961;DHT22;55902;-37.980;-63.602;2023-01-04T05:38:38;18.60;80.80
59961;DHT22;55902;-37.980;-63.602;2023-01-04T05:41:05;18.60;76.30
59961;DHT22;55902;-37.980;-63.602;2023-01-04T05:43:51;18.60;79.70
59961;DHT22;55902;-37.980;-63.602;2023-01-04T05:46:18;18.60;78.60
59961;DHT22;55902;-37.980;-63.602;2023-01-04T05:48:45;18.60;76.80
59961;DHT22;55902;-37.980;-63.602;2023-01-04T05:51:12;18.60;74.20
59961;DHT22;55902;-37.980;-63.602;2023-01-04T05:53:39;18.60;74.40
59961;DHT22;55902;-37.980;-63.602;2023-01-04T05:56:06;18.50;72.80
59961;DHT22;55902;-37.980;-63.602;2023-01-04T05:58:33;18.50;70.00
59961;DHT22;55902;-37.980;-63.602;2023-01-04T06:01:00;18.50;73.90
59961;DHT22;55902;-37.980;-63.602;2023-01-04T06:03:27;18.50;74.40
59961;DHT22;55902;-37.980;-63.602;2023-01-04T06:05:54;18.50;73.90
59961;DHT22;55902;-37.980;-63.602;2023-01-04T06:08:21;18.50;78.20
59961;DHT22;55902;-37.980;-63.602;2023-01-04T06:10:54;18.50;76.40
59961;DHT22;55902;-37.980;-63.602;2023-01-04T06:13:21;18.50;78.50
59961;DHT22;55902;-37.980;-63.602;2023-01-04T06:15:48;18.50;77.00
59961;DHT22;55902;-37.980;-63.602;2023-01-04T06:18:14;18.40;77.10
59961;DHT22;55902;-37.980;-63.602;2023-01-04T06:20:42;18.40;74.20
59961;DHT22;55902;-37.980;-63.602;2023-01-04T06:23:09;18.30;84.20
59961;DHT22;55902;-37.980;-63.602;2023-01-04T06:25:37;18.20;87.40
59961;DHT22;55902;-37.980;-63.602;2023-01-04T06:28:03;18.00;88.50
59961;DHT22;55902;-37.980;-63.602;2023-01-04T06:30:30;18.00;88.00
59961;DHT22;55902;-37.980;-63.602;2023-01-04T06:32:57;18.00;86.30
59961;DHT22;55902;-37.980;-63.602;2023-01-04T06:35:24;18.00;86.20
59961;DHT22;55902;-37.980;-63.602;2023-01-04T06:37:51;17.90;85.30
59961;DHT22;55902;-37.980;-63.602;2023-01-04T06:40:18;17.80;90.30
59961;DHT22;55902;-37.980;-63.602;2023-01-04T06:42:45;17.80;90.00
59961;DHT22;55902;-37.980;-63.602;2023-01-04T06:45:13;17.80;86.80
59961;DHT22;55902;-37.980;-63.602;2023-01-04T06:47:40;17.60;92.50
59961;DHT22;55902;-37.980;-63.602;2023-01-04T06:50:07;17.60;91.30
59961;DHT22;55902;-37.980;-63.602;2023-01-04T06:52:34;17.60;92.70
59961;DHT22;55902;-37.980;-63.602;2023-01-04T06:55:01;17.50;93.90
59961;DHT22;55902;-37.980;-63.602;2023-01-04T06:57:29;17.40;94.50
59961;DHT22;55902;-37.980;-63.602;2023-01-04T06:59:56;17.40;92.60
59961;DHT22;55902;-37.980;-63.602;2023-01-04T07:02:23;17.40;92.20
59961;DHT22;55902;-37.980;-63.602;2023-01-04T07:04:50;17.40;90.30
59961;DHT22;55902;-37.980;-63.602;2023-01-04T07:07:17;17.40;94.90
59961;DHT22;55902;-37.980;-63.602;2023-01-04T07:09:44;17.30;94.90
59961;DHT22;55902;-37.980;-63.602;2023-01-04T07:22:18;17.10;96.00
59961;DHT22;55902;-37.980;-63.602;2023-01-04T07:24:45;17.10;93.40
59961;DHT22;55902;-37.980;-63.602;2023-01-04T07:27:13;17.10;93.30
59961;DHT22;55902;-37.980;-63.602;2023-01-04T07:29:41;17.10;91.10
59961;DHT22;55902;-37.980;-63.602;2023-01-04T07:32:10;17.10;97.80
59961;DHT22;55902;-37.980;-63.602;2023-01-04T07:34:41;17.10;96.50
59961;DHT22;55902;-37.980;-63.602;2023-01-04T07:37:09;17.10;98.40
59961;DHT22;55902;-37.980;-63.602;2023-01-04T07:39:36;17.00;97.20
59961;DHT22;55902;-37.980;-63.602;2023-01-04T07:42:03;17.10;95.40
59961;DHT22;55902;-37.980;-63.602;2023-01-04T07:44:30;17.10;96.50
59961;DHT22;55902;-37.980;-63.602;2023-01-04T07:46:57;17.10;99.30
59961;DHT22;55902;-37.980;-63.602;2023-01-04T07:49:24;17.00;99.60
59961;DHT22;55902;-37.980;-63.602;2023-01-04T07:51:51;17.00;98.20
59961;DHT22;55902;-37.980;-63.602;2023-01-04T07:54:18;17.00;94.60
59961;DHT22;55902;-37.980;-63.602;2023-01-04T07:56:46;17.00;94.90
59961;DHT22;55902;-37.980;-63.602;2023-01-04T07:59:14;17.00;95.00
59961;DHT22;55902;-37.980;-63.602;2023-01-04T08:01:42;17.00;95.60
59961;DHT22;55902;-37.980;-63.602;2023-01-04T08:04:12;16.90;98.50
59961;DHT22;55902;-37.980;-63.602;2023-01-04T08:06:40;16.90;98.30
59961;DHT22;55902;-37.980;-63.602;2023-01-04T08:09:09;16.80;99.60
59961;DHT22;55902;-37.980;-63.602;2023-01-04T08:11:36;16.70;99.90
59961;DHT22;55902;-37.980;-63.602;2023-01-04T08:14:03;16.60;99.90
59961;DHT22;55902;-37.980;-63.602;2023-01-04T08:16:32;16.60;99.90
59961;DHT22;55902;-37.980;-63.602;2023-01-04T08:19:10;16.50;99.90
59961;DHT22;55902;-37.980;-63.602;2023-01-04T08:21:38;16.50;99.90
59961;DHT22;55902;-37.980;-63.602;2023-01-04T08:24:06;16.40;99.90
59961;DHT22;55902;-37.980;-63.602;2023-01-04T08:26:33;16.40;99.90
59961;DHT22;55902;-37.980;-63.602;2023-01-04T08:29:00;16.40;99.90
59961;DHT22;55902;-37.980;-63.602;2023-01-04T08:31:30;16.30;99.90
59961;DHT22;55902;-37.980;-63.602;2023-01-04T08:34:00;16.30;99.90
59961;DHT22;55902;-37.980;-63.602;2023-01-04T08:36:29;16.20;99.90
59961;DHT22;55902;-37.980;-63.602;2023-01-04T08:39:02;16.20;99.90
59961;DHT22;55902;-37.980;-63.602;2023-01-04T08:41:31;16.30;99.90
59961;DHT22;55902;-37.980;-63.602;2023-01-04T08:43:58;16.30;99.90
59961;DHT22;55902;-37.980;-63.602;2023-01-04T08:46:25;16.30;99.90
59961;DHT22;55902;-37.980;-63.602;2023-01-04T08:48:52;16.20;99.90
59961;DHT22;55902;-37.980;-63.602;2023-01-04T08:51:19;16.20;99.90
59961;DHT22;55902;-37.980;-63.602;2023-01-04T08:53:46;16.20;99.90
59961;DHT22;55902;-37.980;-63.602;2023-01-04T08:56:13;16.10;99.90
59961;DHT22;55902;-37.980;-63.602;2023-01-04T08:58:40;16.10;99.90
59961;DHT22;55902;-37.980;-63.602;2023-01-04T09:01:08;16.10;99.90
59961;DHT22;55902;-37.980;-63.602;2023-01-04T09:03:37;16.20;99.90
59961;DHT22;55902;-37.980;-63.602;2023-01-04T09:06:10;16.20;99.90
59961;DHT22;55902;-37.980;-63.602;2023-01-04T09:08:38;16.20;99.90
59961;DHT22;55902;-37.980;-63.602;2023-01-04T09:11:14;16.20;99.40
59961;DHT22;55902;-37.980;-63.602;2023-01-04T09:13:41;16.20;99.50
59961;DHT22;55902;-37.980;-63.602;2023-01-04T09:16:19;16.10;99.90
59961;DHT22;55902;-37.980;-63.602;2023-01-04T09:18:46;16.10;99.90
59961;DHT22;55902;-37.980;-63.602;2023-01-04T09:21:19;16.00;99.90
59961;DHT22;55902;-37.980;-63.602;2023-01-04T09:23:50;16.00;99.90
59961;DHT22;55902;-37.980;-63.602;2023-01-04T09:26:22;15.90;99.90
59961;DHT22;55902;-37.980;-63.602;2023-01-04T09:29:34;15.90;99.90
59961;DHT22;55902;-37.980;-63.602;2023-01-04T09:32:01;15.90;99.90
59961;DHT22;55902;-37.980;-63.602;2023-01-04T09:34:28;16.00;99.90
59961;DHT22;55902;-37.980;-63.602;2023-01-04T09:36:55;16.00;99.90
59961;DHT22;55902;-37.980;-63.602;2023-01-04T09:39:25;16.00;99.90
59961;DHT22;55902;-37.980;-63.602;2023-01-04T09:41:58;16.00;99.90
59961;DHT22;55902;-37.980;-63.602;2023-01-04T09:44:44;16.10;99.90
59961;DHT22;55902;-37.980;-63.602;2023-01-04T09:55:42;16.20;99.90
59961;DHT22;55902;-37.980;-63.602;2023-01-04T09:58:33;16.30;99.90
59961;DHT22;55902;-37.980;-63.602;2023-01-04T10:01:11;16.30;99.90
59961;DHT22;55902;-37.980;-63.602;2023-01-04T10:03:51;16.40;99.90
59961;DHT22;55902;-37.980;-63.602;2023-01-04T10:06:19;16.50;99.90
59961;DHT22;55902;-37.980;-63.602;2023-01-04T10:08:46;16.60;99.90
59961;DHT22;55902;-37.980;-63.602;2023-01-04T10:11:27;16.70;99.90
59961;DHT22;55902;-37.980;-63.602;2023-01-04T10:14:12;16.80;99.90
59961;DHT22;55902;-37.980;-63.602;2023-01-04T10:26:41;17.30;99.90
59961;DHT22;55902;-37.980;-63.602;2023-01-04T10:29:34;17.40;99.90
59961;DHT22;55902;-37.980;-63.602;2023-01-04T10:34:50;17.70;99.90
59961;DHT22;55902;-37.980;-63.602;2023-01-04T10:37:31;17.90;99.90
59961;DHT22;55902;-37.980;-63.602;2023-01-04T10:40:01;18.10;99.90
59961;DHT22;55902;-37.980;-63.602;2023-01-04T10:47:54;19.20;99.30
59961;DHT22;55902;-37.980;-63.602;2023-01-04T10:53:17;20.00;97.10
59961;DHT22;55902;-37.980;-63.602;2023-01-04T10:56:07;20.40;95.70
59961;DHT22;55902;-37.980;-63.602;2023-01-04T10:58:49;20.60;94.60
59961;DHT22;55902;-37.980;-63.602;2023-01-04T11:01:36;20.80;93.40
59961;DHT22;55902;-37.980;-63.602;2023-01-04T11:07:21;21.00;92.10
59961;DHT22;55902;-37.980;-63.602;2023-01-04T11:10:01;21.00;90.90
59961;DHT22;55902;-37.980;-63.602;2023-01-04T11:12:28;21.00;90.70
59961;DHT22;55902;-37.980;-63.602;2023-01-04T11:14:55;21.30;90.50
59961;DHT22;55902;-37.980;-63.602;2023-01-04T11:17:24;21.50;88.70
59961;DHT22;55902;-37.980;-63.602;2023-01-04T11:19:51;21.90;87.80
59961;DHT22;55902;-37.980;-63.602;2023-01-04T11:25:00;22.40;86.80
59961;DHT22;55902;-37.980;-63.602;2023-01-04T11:27:30;22.60;83.90
59961;DHT22;55902;-37.980;-63.602;2023-01-04T11:30:22;22.60;82.90
59961;DHT22;55902;-37.980;-63.602;2023-01-04T11:32:57;22.50;81.00
59961;DHT22;55902;-37.980;-63.602;2023-01-04T11:35:41;22.60;79.40
59961;DHT22;55902;-37.980;-63.602;2023-01-04T11:38:12;22.70;79.60
59961;DHT22;55902;-37.980;-63.602;2023-01-04T11:40:40;22.90;78.40
59961;DHT22;55902;-37.980;-63.602;2023-01-04T11:43:18;23.10;76.50
59961;DHT22;55902;-37.980;-63.602;2023-01-04T11:46:01;23.10;74.60
59961;DHT22;55902;-37.980;-63.602;2023-01-04T11:48:34;23.30;74.90
59961;DHT22;55902;-37.980;-63.602;2023-01-04T11:57:02;23.50;73.30
59961;DHT22;55902;-37.980;-63.602;2023-01-04T11:59:33;23.70;74.60
59961;DHT22;55902;-37.980;-63.602;2023-01-04T12:02:18;23.70;72.60
59961;DHT22;55902;-37.980;-63.602;2023-01-04T12:04:47;23.80;72.30
59961;DHT22;55902;-37.980;-63.602;2023-01-04T12:10:14;24.10;70.60
59961;DHT22;55902;-37.980;-63.602;2023-01-04T12:12:48;24.70;71.60
59961;DHT22;55902;-37.980;-63.602;2023-01-04T12:15:27;25.30;69.50
59961;DHT22;55902;-37.980;-63.602;2023-01-04T12:17:58;25.80;67.30
59961;DHT22;55902;-37.980;-63.602;2023-01-04T12:20:30;26.20;65.40
59961;DHT22;55902;-37.980;-63.602;2023-01-04T12:22:57;26.70;64.60
59961;DHT22;55902;-37.980;-63.602;2023-01-04T12:25:43;27.00;61.10
59961;DHT22;55902;-37.980;-63.602;2023-01-04T12:28:34;27.30;61.30
59961;DHT22;55902;-37.980;-63.602;2023-01-04T12:33:58;28.10;58.60
59961;DHT22;55902;-37.980;-63.602;2023-01-04T12:47:37;29.50;51.20
59961;DHT22;55902;-37.980;-63.602;2023-01-04T12:50:23;30.00;51.70
59961;DHT22;55902;-37.980;-63.602;2023-01-04T12:53:00;30.40;49.00
59961;DHT22;55902;-37.980;-63.602;2023-01-04T13:06:06;31.20;45.10
59961;DHT22;55902;-37.980;-63.602;2023-01-04T13:08:46;31.20;43.90
59961;DHT22;55902;-37.980;-63.602;2023-01-04T13:11:51;31.20;44.50
59961;DHT22;55902;-37.980;-63.602;2023-01-04T13:15:02;31.50;45.10
59961;DHT22;55902;-37.980;-63.602;2023-01-04T13:17:31;31.80;41.90
59961;DHT22;55902;-37.980;-63.602;2023-01-04T13:20:21;32.20;40.70
59961;DHT22;55902;-37.980;-63.602;2023-01-04T13:22:52;32.30;40.60
59961;DHT22;55902;-37.980;-63.602;2023-01-04T13:25:21;32.60;42.00
59961;DHT22;55902;-37.980;-63.602;2023-01-04T13:32:58;33.00;39.70
59961;DHT22;55902;-37.980;-63.602;2023-01-04T13:35:25;33.20;38.60
59961;DHT22;55902;-37.980;-63.602;2023-01-04T13:37:52;33.50;37.50
59961;DHT22;55902;-37.980;-63.602;2023-01-04T13:40:32;33.70;37.60
59961;DHT22;55902;-37.980;-63.602;2023-01-04T13:43:43;33.80;35.60
59961;DHT22;55902;-37.980;-63.602;2023-01-04T13:46:20;34.00;35.70
59961;DHT22;55902;-37.980;-63.602;2023-01-04T13:48:50;34.10;34.80
59961;DHT22;55902;-37.980;-63.602;2023-01-04T13:51:26;34.20;35.40
59961;DHT22;55902;-37.980;-63.602;2023-01-04T13:54:00;34.30;35.80
59961;DHT22;55902;-37.980;-63.602;2023-01-04T13:56:32;34.50;35.20
59961;DHT22;55902;-37.980;-63.602;2023-01-04T13:59:03;34.80;35.70
59961;DHT22;55902;-37.980;-63.602;2023-01-04T14:01:43;35.20;36.90
59961;DHT22;55902;-37.980;-63.602;2023-01-04T14:04:20;35.60;33.20
59961;DHT22;55902;-37.980;-63.602;2023-01-04T14:06:53;35.80;33.20
59961;DHT22;55902;-37.980;-63.602;2023-01-04T14:09:27;36.00;33.10
59961;DHT22;55902;-37.980;-63.602;2023-01-04T14:12:21;36.20;31.50
59961;DHT22;55902;-37.980;-63.602;2023-01-04T14:14:55;36.20;32.70
59961;DHT22;55902;-37.980;-63.602;2023-01-04T14:17:33;36.40;32.90
59961;DHT22;55902;-37.980;-63.602;2023-01-04T14:36:07;36.40;29.80
59961;DHT22;55902;-37.980;-63.602;2023-01-04T14:38:41;36.50;28.80
59961;DHT22;55902;-37.980;-63.602;2023-01-04T14:44:15;36.50;27.50
59961;DHT22;55902;-37.980;-63.602;2023-01-04T14:46:56;36.90;27.40
59961;DHT22;55902;-37.980;-63.602;2023-01-04T14:49:46;37.00;27.30
59961;DHT22;55902;-37.980;-63.602;2023-01-04T14:52:22;37.30;27.70
59961;DHT22;55902;-37.980;-63.602;2023-01-04T14:54:58;37.40;26.60
59961;DHT22;55902;-37.980;-63.602;2023-01-04T14:57:30;37.60;26.90
59961;DHT22;55902;-37.980;-63.602;2023-01-04T14:59:57;37.70;25.30
59961;DHT22;55902;-37.980;-63.602;2023-01-04T15:02:24;37.70;25.70
59961;DHT22;55902;-37.980;-63.602;2023-01-04T15:05:04;38.20;26.20
59961;DHT22;55902;-37.980;-63.602;2023-01-04T15:07:37;38.00;25.10
59961;DHT22;55902;-37.980;-63.602;2023-01-04T15:10:14;38.10;25.90
59961;DHT22;55902;-37.980;-63.602;2023-01-04T15:12:43;38.20;26.60
59961;DHT22;55902;-37.980;-63.602;2023-01-04T15:15:11;38.30;25.10
59961;DHT22;55902;-37.980;-63.602;2023-01-04T15:17:38;38.50;25.40
59961;DHT22;55902;-37.980;-63.602;2023-01-04T15:20:05;38.60;24.70
59961;DHT22;55902;-37.980;-63.602;2023-01-04T15:22:32;38.60;25.60
59961;DHT22;55902;-37.980;-63.602;2023-01-04T15:24:59;38.90;25.60
59961;DHT22;55902;-37.980;-63.602;2023-01-04T15:27:26;38.80;25.00
59961;DHT22;55902;-37.980;-63.602;2023-01-04T15:29:53;39.10;26.40
59961;DHT22;55902;-37.980;-63.602;2023-01-04T15:32:20;39.40;26.40
59961;DHT22;55902;-37.980;-63.602;2023-01-04T15:34:50;39.40;24.50
59961;DHT22;55902;-37.980;-63.602;2023-01-04T15:40:08;39.40;26.60
59961;DHT22;55902;-37.980;-63.602;2023-01-04T15:42:39;39.80;26.70
59961;DHT22;55902;-37.980;-63.602;2023-01-04T15:45:45;40.10;25.60
59961;DHT22;55902;-37.980;-63.602;2023-01-04T15:48:13;40.10;24.80
59961;DHT22;55902;-37.980;-63.602;2023-01-04T15:50:40;40.40;24.90
59961;DHT22;55902;-37.980;-63.602;2023-01-04T15:53:07;40.40;25.20
59961;DHT22;55902;-37.980;-63.602;2023-01-04T15:55:36;40.40;24.30
59961;DHT22;55902;-37.980;-63.602;2023-01-04T15:58:04;40.30;23.60
59961;DHT22;55902;-37.980;-63.602;2023-01-04T16:00:31;40.20;24.10
59961;DHT22;55902;-37.980;-63.602;2023-01-04T16:02:58;40.10;24.70
59961;DHT22;55902;-37.980;-63.602;2023-01-04T16:05:25;40.20;23.90
59961;DHT22;55902;-37.980;-63.602;2023-01-04T16:07:52;40.20;24.10
59961;DHT22;55902;-37.980;-63.602;2023-01-04T16:10:19;40.40;24.00
59961;DHT22;55902;-37.980;-63.602;2023-01-04T16:12:45;40.60;23.40
59961;DHT22;55902;-37.980;-63.602;2023-01-04T16:15:20;40.50;24.00
59961;DHT22;55902;-37.980;-63.602;2023-01-04T16:17:47;40.10;24.20
59961;DHT22;55902;-37.980;-63.602;2023-01-04T16:20:16;39.90;23.70
59961;DHT22;55902;-37.980;-63.602;2023-01-04T16:22:43;40.00;23.50
59961;DHT22;55902;-37.980;-63.602;2023-01-04T16:25:10;40.20;25.40
59961;DHT22;55902;-37.980;-63.602;2023-01-04T16:27:38;40.40;23.90
59961;DHT22;55902;-37.980;-63.602;2023-01-04T16:30:07;40.80;24.60
59961;DHT22;55902;-37.980;-63.602;2023-01-04T16:32:35;41.40;24.50
59961;DHT22;55902;-37.980;-63.602;2023-01-04T16:35:03;41.80;23.90
59961;DHT22;55902;-37.980;-63.602;2023-01-04T16:37:30;41.90;22.50
59961;DHT22;55902;-37.980;-63.602;2023-01-04T16:39:57;41.80;22.50
59961;DHT22;55902;-37.980;-63.602;2023-01-04T16:42:24;41.90;23.30
59961;DHT22;55902;-37.980;-63.602;2023-01-04T16:44:51;42.30;23.90
59961;DHT22;55902;-37.980;-63.602;2023-01-04T16:47:18;42.60;23.40
59961;DHT22;55902;-37.980;-63.602;2023-01-04T16:49:50;42.70;22.20
59961;DHT22;55902;-37.980;-63.602;2023-01-04T16:52:17;42.70;22.70
59961;DHT22;55902;-37.980;-63.602;2023-01-04T16:54:44;42.90;23.20
59961;DHT22;55902;-37.980;-63.602;2023-01-04T16:57:11;42.80;23.30
59961;DHT22;55902;-37.980;-63.602;2023-01-04T16:59:38;43.00;21.80
59961;DHT22;55902;-37.980;-63.602;2023-01-04T17:02:05;43.30;22.80
59961;DHT22;55902;-37.980;-63.602;2023-01-04T17:04:32;43.80;22.90
59961;DHT22;55902;-37.980;-63.602;2023-01-04T17:06:59;44.40;22.40
59961;DHT22;55902;-37.980;-63.602;2023-01-04T17:09:26;44.70;23.00
59961;DHT22;55902;-37.980;-63.602;2023-01-04T17:11:53;45.00;22.00
59961;DHT22;55902;-37.980;-63.602;2023-01-04T17:14:27;45.20;21.00
59961;DHT22;55902;-37.980;-63.602;2023-01-04T17:16:55;45.30;21.50
59961;DHT22;55902;-37.980;-63.602;2023-01-04T17:19:23;45.30;21.10
59961;DHT22;55902;-37.980;-63.602;2023-01-04T17:21:50;45.50;22.10
59961;DHT22;55902;-37.980;-63.602;2023-01-04T17:24:17;45.90;21.80
59961;DHT22;55902;-37.980;-63.602;2023-01-04T17:26:44;46.10;19.60
59961;DHT22;55902;-37.980;-63.602;2023-01-04T17:29:11;46.20;20.80
59961;DHT22;55902;-37.980;-63.602;2023-01-04T17:31:43;46.30;21.90
59961;DHT22;55902;-37.980;-63.602;2023-01-04T17:34:12;46.60;21.10
59961;DHT22;55902;-37.980;-63.602;2023-01-04T17:36:40;46.60;20.70
59961;DHT22;55902;-37.980;-63.602;2023-01-04T17:39:07;46.70;21.30
59961;DHT22;55902;-37.980;-63.602;2023-01-04T17:41:34;46.80;22.20
59961;DHT22;55902;-37.980;-63.602;2023-01-04T17:44:03;46.90;21.00
59961;DHT22;55902;-37.980;-63.602;2023-01-04T17:46:33;46.90;20.50
59961;DHT22;55902;-37.980;-63.602;2023-01-04T17:49:04;46.60;21.10
59961;DHT22;55902;-37.980;-63.602;2023-01-04T17:51:31;46.50;20.80
59961;DHT22;55902;-37.980;-63.602;2023-01-04T17:54:00;46.20;20.10
59961;DHT22;55902;-37.980;-63.602;2023-01-04T17:56:28;45.60;20.00